sensor_id;sensor_type;location;lat;lon;timestamp;temperature;humidity
75865;HTU21D;64510;46.704;38.274;2023-05-14T00:01:40;14.05;83.68
75865;HTU21D;64510;46.704;38.274;2023-05-14T00:04:06;14.03;83.79
75865;HTU21D;64510;46.704;38.274;2023-05-14T00:06:32;14.00;83.83
75865;HTU21D;64510;46.704;38.274;2023-05-14T00:08:58;13.95;84.16
75865;HTU21D;64510;46.704;38.274;2023-05-14T00:11:23;13.93;84.61
75865;HTU21D;64510;46.704;38.274;2023-05-14T00:13:50;13.91;84.74
75865;HTU21D;64510;46.704;38.274;2023-05-14T00:16:15;13.88;84.98
75865;HTU21D;64510;46.704;38.274;2023-05-14T00:18:41;13.83;85.09
75865;HTU21D;64510;46.704;38.274;2023-05-14T00:21:07;13.78;85.29
75865;HTU21D;64510;46.704;38.274;2023-05-14T00:23:33;13.79;85.42
75865;HTU21D;64510;46.704;38.274;2023-05-14T00:25:59;13.77;85.58
75865;HTU21D;64510;46.704;38.274;2023-05-14T00:28:25;13.75;85.69
75865;HTU21D;64510;46.704;38.274;2023-05-14T00:30:51;13.73;85.91
75865;HTU21D;64510;46.704;38.274;2023-05-14T00:33:16;13.67;86.00
75865;HTU21D;64510;46.704;38.274;2023-05-14T00:35:42;13.65;85.88
75865;HTU21D;64510;46.704;38.274;2023-05-14T00:38:10;13.67;86.07
75865;HTU21D;64510;46.704;38.274;2023-05-14T00:40:41;13.67;86.27
75865;HTU21D;64510;46.704;38.274;2023-05-14T00:43:10;13.67;86.33
75865;HTU21D;64510;46.704;38.274;2023-05-14T00:45:37;13.64;86.25
75865;HTU21D;64510;46.704;38.274;2023-05-14T00:48:03;13.63;86.52
75865;HTU21D;64510;46.704;38.274;2023-05-14T00:50:30;13.59;86.55
75865;HTU21D;64510;46.704;38.274;2023-05-14T00:52:56;13.55;86.95
75865;HTU21D;64510;46.704;38.274;2023-05-14T00:55:22;13.52;86.99
75865;HTU21D;64510;46.704;38.274;2023-05-14T00:57:49;13.54;87.19
75865;HTU21D;64510;46.704;38.274;2023-05-14T01:00:15;13.58;87.11
75865;HTU21D;64510;46.704;38.274;2023-05-14T01:02:41;13.63;87.20
75865;HTU21D;64510;46.704;38.274;2023-05-14T01:05:08;13.63;87.26
75865;HTU21D;64510;46.704;38.274;2023-05-14T01:10:38;13.67;87.61
75865;HTU21D;64510;46.704;38.274;2023-05-14T01:13:44;13.64;87.65
75865;HTU21D;64510;46.704;38.274;2023-05-14T01:16:14;13.58;87.68
75865;HTU21D;64510;46.704;38.274;2023-05-14T01:18:45;13.54;87.83
75865;HTU21D;64510;46.704;38.274;2023-05-14T01:21:24;13.52;88.02
75865;HTU21D;64510;46.704;38.274;2023-05-14T01:23:50;13.55;87.98
75865;HTU21D;64510;46.704;38.274;2023-05-14T01:26:16;13.53;88.06
75865;HTU21D;64510;46.704;38.274;2023-05-14T01:28:42;13.51;88.06
75865;HTU21D;64510;46.704;38.274;2023-05-14T01:31:16;13.51;88.12
75865;HTU21D;64510;46.704;38.274;2023-05-14T01:33:43;13.51;88.12
75865;HTU21D;64510;46.704;38.274;2023-05-14T01:36:09;13.47;88.06
75865;HTU21D;64510;46.704;38.274;2023-05-14T01:38:36;13.44;88.20
75865;HTU21D;64510;46.704;38.274;2023-05-14T01:41:04;13.46;88.29
75865;HTU21D;64510;46.704;38.274;2023-05-14T01:43:30;13.46;88.04
75865;HTU21D;64510;46.704;38.274;2023-05-14T01:45:56;13.45;88.12
75865;HTU21D;64510;46.704;38.274;2023-05-14T01:48:24;13.40;88.35
75865;HTU21D;64510;46.704;38.274;2023-05-14T01:50:50;13.41;88.22
75865;HTU21D;64510;46.704;38.274;2023-05-14T01:53:16;13.45;88.25
75865;HTU21D;64510;46.704;38.274;2023-05-14T01:55:41;13.44;88.05
75865;HTU21D;64510;46.704;38.274;2023-05-14T01:58:08;13.41;88.09
75865;HTU21D;64510;46.704;38.274;2023-05-14T02:00:34;13.39;87.98
75865;HTU21D;64510;46.704;38.274;2023-05-14T02:03:00;13.38;87.97
75865;HTU21D;64510;46.704;38.274;2023-05-14T02:05:26;13.39;87.83
75865;HTU21D;64510;46.704;38.274;2023-05-14T02:07:53;13.41;87.71
75865;HTU21D;64510;46.704;38.274;2023-05-14T02:10:19;13.40;87.65
75865;HTU21D;64510;46.704;38.274;2023-05-14T02:12:48;13.39;87.70
75865;HTU21D;64510;46.704;38.274;2023-05-14T02:15:15;13.40;87.61
75865;HTU21D;64510;46.704;38.274;2023-05-14T02:17:41;13.46;87.56
75865;HTU21D;64510;46.704;38.274;2023-05-14T02:20:10;13.51;87.37
75865;HTU21D;64510;46.704;38.274;2023-05-14T02:22:36;13.55;87.21
75865;HTU21D;64510;46.704;38.274;2023-05-14T02:25:02;13.62;87.03
75865;HTU21D;64510;46.704;38.274;2023-05-14T02:27:28;13.68;86.90
75865;HTU21D;64510;46.704;38.274;2023-05-14T02:29:54;13.78;86.76
75865;HTU21D;64510;46.704;38.274;2023-05-14T02:32:26;13.86;86.42
75865;HTU21D;64510;46.704;38.274;2023-05-14T02:34:51;13.93;86.12
75865;HTU21D;64510;46.704;38.274;2023-05-14T02:37:17;13.95;86.06
75865;HTU21D;64510;46.704;38.274;2023-05-14T02:39:43;13.97;86.09
75865;HTU21D;64510;46.704;38.274;2023-05-14T02:42:09;13.99;86.06
75865;HTU21D;64510;46.704;38.274;2023-05-14T02:44:35;14.03;86.03
75865;HTU21D;64510;46.704;38.274;2023-05-14T02:47:01;14.05;86.04
75865;HTU21D;64510;46.704;38.274;2023-05-14T02:49:27;14.08;86.03
75865;HTU21D;64510;46.704;38.274;2023-05-14T02:51:53;14.10;86.00
75865;HTU21D;64510;46.704;38.274;2023-05-14T02:54:19;14.17;85.93
75865;HTU21D;64510;46.704;38.274;2023-05-14T02:56:45;14.23;85.90
75865;HTU21D;64510;46.704;38.274;2023-05-14T02:59:11;14.28;85.79
75865;HTU21D;64510;46.704;38.274;2023-05-14T03:01:37;14.33;85.71
75865;HTU21D;64510;46.704;38.274;2023-05-14T03:04:03;14.37;85.67
75865;HTU21D;64510;46.704;38.274;2023-05-14T03:06:29;14.39;85.64
75865;HTU21D;64510;46.704;38.274;2023-05-14T03:08:55;14.37;85.74
75865;HTU21D;64510;46.704;38.274;2023-05-14T03:11:21;14.37;85.95
75865;HTU21D;64510;46.704;38.274;2023-05-14T03:13:47;14.41;86.00
75865;HTU21D;64510;46.704;38.274;2023-05-14T03:16:13;14.44;86.05
75865;HTU21D;64510;46.704;38.274;2023-05-14T03:18:39;14.49;85.95
75865;HTU21D;64510;46.704;38.274;2023-05-14T03:21:08;14.50;85.98
75865;HTU21D;64510;46.704;38.274;2023-05-14T03:23:34;14.54;85.96
75865;HTU21D;64510;46.704;38.274;2023-05-14T03:26:00;14.58;86.09
75865;HTU21D;64510;46.704;38.274;2023-05-14T03:28:26;14.64;85.99
75865;HTU21D;64510;46.704;38.274;2023-05-14T03:30:52;14.71;85.80
75865;HTU21D;64510;46.704;38.274;2023-05-14T03:33:18;14.80;85.73
75865;HTU21D;64510;46.704;38.274;2023-05-14T03:35:45;14.87;85.66
75865;HTU21D;64510;46.704;38.274;2023-05-14T03:38:11;14.96;85.52
75865;HTU21D;64510;46.704;38.274;2023-05-14T03:40:37;15.04;85.36
75865;HTU21D;64510;46.704;38.274;2023-05-14T03:43:03;15.15;85.14
75865;HTU21D;64510;46.704;38.274;2023-05-14T03:45:29;15.14;84.97
75865;HTU21D;64510;46.704;38.274;2023-05-14T03:47:57;15.11;84.93
75865;HTU21D;64510;46.704;38.274;2023-05-14T03:50:23;15.11;85.00
75865;HTU21D;64510;46.704;38.274;2023-05-14T03:52:51;15.14;84.87
75865;HTU21D;64510;46.704;38.274;2023-05-14T03:55:20;15.16;84.86
75865;HTU21D;64510;46.704;38.274;2023-05-14T03:57:49;15.21;84.72
75865;HTU21D;64510;46.704;38.274;2023-05-14T04:00:15;15.26;84.61
75865;HTU21D;64510;46.704;38.274;2023-05-14T04:02:44;15.33;84.48
75865;HTU21D;64510;46.704;38.274;2023-05-14T04:05:10;15.46;84.24
75865;HTU21D;64510;46.704;38.274;2023-05-14T04:07:36;15.54;84.13
75865;HTU21D;64510;46.704;38.274;2023-05-14T04:10:02;15.66;84.07
75865;HTU21D;64510;46.704;38.274;2023-05-14T04:12:29;15.82;83.79
75865;HTU21D;64510;46.704;38.274;2023-05-14T04:14:57;16.01;83.40
75865;HTU21D;64510;46.704;38.274;2023-05-14T04:17:23;16.14;82.99
75865;HTU21D;64510;46.704;38.274;2023-05-14T04:19:49;16.26;82.66
75865;HTU21D;64510;46.704;38.274;2023-05-14T04:22:15;16.27;82.25
75865;HTU21D;64510;46.704;38.274;2023-05-14T04:24:40;16.24;82.30
75865;HTU21D;64510;46.704;38.274;2023-05-14T04:27:06;16.41;82.08
75865;HTU21D;64510;46.704;38.274;2023-05-14T04:29:32;16.49;81.58
75865;HTU21D;64510;46.704;38.274;2023-05-14T04:31:58;16.63;81.29
75865;HTU21D;64510;46.704;38.274;2023-05-14T04:34:24;16.77;81.09
75865;HTU21D;64510;46.704;38.274;2023-05-14T04:36:50;16.92;80.58
75865;HTU21D;64510;46.704;38.274;2023-05-14T04:39:16;17.13;80.24
75865;HTU21D;64510;46.704;38.274;2023-05-14T04:41:43;17.39;79.70
75865;HTU21D;64510;46.704;38.274;2023-05-14T04:44:11;17.68;79.27
75865;HTU21D;64510;46.704;38.274;2023-05-14T04:46:37;18.18;78.82
75865;HTU21D;64510;46.704;38.274;2023-05-14T04:49:02;18.57;77.59
75865;HTU21D;64510;46.704;38.274;2023-05-14T04:51:28;19.14;76.77
75865;HTU21D;64510;46.704;38.274;2023-05-14T04:53:54;19.65;75.57
75865;HTU21D;64510;46.704;38.274;2023-05-14T04:56:20;19.86;74.49
75865;HTU21D;64510;46.704;38.274;2023-05-14T04:58:46;20.10;73.81
75865;HTU21D;64510;46.704;38.274;2023-05-14T05:01:12;20.40;72.39
75865;HTU21D;64510;46.704;38.274;2023-05-14T05:03:38;20.62;71.57
75865;HTU21D;64510;46.704;38.274;2023-05-14T05:06:04;20.75;70.39
75865;HTU21D;64510;46.704;38.274;2023-05-14T05:08:30;20.79;69.65
75865;HTU21D;64510;46.704;38.274;2023-05-14T05:10:56;20.84;68.73
75865;HTU21D;64510;46.704;38.274;2023-05-14T05:13:22;20.85;67.98
75865;HTU21D;64510;46.704;38.274;2023-05-14T05:15:48;21.03;67.11
75865;HTU21D;64510;46.704;38.274;2023-05-14T05:18:13;21.01;66.62
75865;HTU21D;64510;46.704;38.274;2023-05-14T05:20:39;20.89;65.94
75865;HTU21D;64510;46.704;38.274;2023-05-14T05:23:05;20.73;63.11
75865;HTU21D;64510;46.704;38.274;2023-05-14T05:25:31;20.64;62.45
75865;HTU21D;64510;46.704;38.274;2023-05-14T05:27:57;20.47;60.26
75865;HTU21D;64510;46.704;38.274;2023-05-14T05:30:23;20.40;59.99
75865;HTU21D;64510;46.704;38.274;2023-05-14T05:32:49;20.24;59.81
75865;HTU21D;64510;46.704;38.274;2023-05-14T05:35:15;20.31;59.22
75865;HTU21D;64510;46.704;38.274;2023-05-14T05:37:41;20.39;58.72
75865;HTU21D;64510;46.704;38.274;2023-05-14T05:40:08;20.44;57.58
75865;HTU21D;64510;46.704;38.274;2023-05-14T05:42:34;20.53;57.12
75865;HTU21D;64510;46.704;38.274;2023-05-14T05:45:00;20.64;56.77
75865;HTU21D;64510;46.704;38.274;2023-05-14T05:47:26;20.85;56.13
75865;HTU21D;64510;46.704;38.274;2023-05-14T05:49:52;20.90;54.90
75865;HTU21D;64510;46.704;38.274;2023-05-14T05:52:18;20.89;54.93
75865;HTU21D;64510;46.704;38.274;2023-05-14T05:54:44;21.10;54.35
75865;HTU21D;64510;46.704;38.274;2023-05-14T05:57:10;21.21;54.16
75865;HTU21D;64510;46.704;38.274;2023-05-14T05:59:36;21.52;53.75
75865;HTU21D;64510;46.704;38.274;2023-05-14T06:02:02;21.94;52.65
75865;HTU21D;64510;46.704;38.274;2023-05-14T06:04:28;22.13;51.60
75865;HTU21D;64510;46.704;38.274;2023-05-14T06:06:53;22.29;51.46
75865;HTU21D;64510;46.704;38.274;2023-05-14T06:09:19;22.73;50.91
75865;HTU21D;64510;46.704;38.274;2023-05-14T06:11:45;23.02;49.79
75865;HTU21D;64510;46.704;38.274;2023-05-14T06:14:11;23.25;49.07
75865;HTU21D;64510;46.704;38.274;2023-05-14T06:16:37;23.52;48.53
75865;HTU21D;64510;46.704;38.274;2023-05-14T06:19:03;23.56;47.59
75865;HTU21D;64510;46.704;38.274;2023-05-14T06:21:29;23.45;46.86
75865;HTU21D;64510;46.704;38.274;2023-05-14T06:23:55;23.50;46.72
75865;HTU21D;64510;46.704;38.274;2023-05-14T06:26:21;23.39;45.76
75865;HTU21D;64510;46.704;38.274;2023-05-14T06:28:47;23.01;45.00
75865;HTU21D;64510;46.704;38.274;2023-05-14T06:31:13;22.97;45.44
75865;HTU21D;64510;46.704;38.274;2023-05-14T06:33:39;23.13;45.07
75865;HTU21D;64510;46.704;38.274;2023-05-14T06:36:06;23.17;44.78
75865;HTU21D;64510;46.704;38.274;2023-05-14T06:38:32;23.29;44.74
75865;HTU21D;64510;46.704;38.274;2023-05-14T06:40:58;23.20;43.96
75865;HTU21D;64510;46.704;38.274;2023-05-14T06:43:24;23.34;44.20
75865;HTU21D;64510;46.704;38.274;2023-05-14T06:45:50;23.41;43.23
75865;HTU21D;64510;46.704;38.274;2023-05-14T06:48:17;23.26;42.43
75865;HTU21D;64510;46.704;38.274;2023-05-14T06:50:44;23.38;42.67
75865;HTU21D;64510;46.704;38.274;2023-05-14T06:53:11;23.44;42.28
75865;HTU21D;64510;46.704;38.274;2023-05-14T06:55:37;23.53;42.19
75865;HTU21D;64510;46.704;38.274;2023-05-14T06:58:04;23.20;42.63
75865;HTU21D;64510;46.704;38.274;2023-05-14T07:00:30;22.93;42.79
75865;HTU21D;64510;46.704;38.274;2023-05-14T07:02:56;22.98;42.13
75865;HTU21D;64510;46.704;38.274;2023-05-14T07:05:23;23.16;42.42
75865;HTU21D;64510;46.704;38.274;2023-05-14T07:07:49;23.15;42.34
75865;HTU21D;64510;46.704;38.274;2023-05-14T07:10:15;23.00;41.58
75865;HTU21D;64510;46.704;38.274;2023-05-14T07:12:41;22.85;41.29
75865;HTU21D;64510;46.704;38.274;2023-05-14T07:15:07;23.16;41.09
75865;HTU21D;64510;46.704;38.274;2023-05-14T07:17:33;23.31;40.92
75865;HTU21D;64510;46.704;38.274;2023-05-14T07:19:59;23.39;41.50
75865;HTU21D;64510;46.704;38.274;2023-05-14T07:22:25;23.44;42.13
75865;HTU21D;64510;46.704;38.274;2023-05-14T07:24:51;23.37;42.28
75865;HTU21D;64510;46.704;38.274;2023-05-14T07:27:17;23.26;42.79
75865;HTU21D;64510;46.704;38.274;2023-05-14T07:29:43;23.45;43.29
75865;HTU21D;64510;46.704;38.274;2023-05-14T07:32:09;23.80;43.13
75865;HTU21D;64510;46.704;38.274;2023-05-14T07:34:35;23.27;42.83
75865;HTU21D;64510;46.704;38.274;2023-05-14T07:37:01;23.30;42.20
75865;HTU21D;64510;46.704;38.274;2023-05-14T07:39:28;23.24;42.23
75865;HTU21D;64510;46.704;38.274;2023-05-14T07:41:53;23.30;41.81
75865;HTU21D;64510;46.704;38.274;2023-05-14T07:44:20;23.18;42.38
75865;HTU21D;64510;46.704;38.274;2023-05-14T07:46:46;23.05;42.84
75865;HTU21D;64510;46.704;38.274;2023-05-14T07:49:12;22.88;43.44
75865;HTU21D;64510;46.704;38.274;2023-05-14T07:51:38;22.67;44.29
75865;HTU21D;64510;46.704;38.274;2023-05-14T07:54:04;22.55;44.41
75865;HTU21D;64510;46.704;38.274;2023-05-14T07:56:30;22.54;44.69
75865;HTU21D;64510;46.704;38.274;2023-05-14T07:58:56;22.37;44.02
75865;HTU21D;64510;46.704;38.274;2023-05-14T08:01:22;22.26;44.35
75865;HTU21D;64510;46.704;38.274;2023-05-14T08:03:48;22.39;44.62
75865;HTU21D;64510;46.704;38.274;2023-05-14T08:06:14;22.77;44.07
75865;HTU21D;64510;46.704;38.274;2023-05-14T08:08:40;22.82;43.76
75865;HTU21D;64510;46.704;38.274;2023-05-14T08:11:05;22.64;43.58
75865;HTU21D;64510;46.704;38.274;2023-05-14T08:13:31;22.93;43.53
75865;HTU21D;64510;46.704;38.274;2023-05-14T08:15:57;23.15;42.88
75865;HTU21D;64510;46.704;38.274;2023-05-14T08:18:23;23.16;42.26
75865;HTU21D;64510;46.704;38.274;2023-05-14T08:20:49;23.08;41.78
75865;HTU21D;64510;46.704;38.274;2023-05-14T08:23:15;23.15;42.08
75865;HTU21D;64510;46.704;38.274;2023-05-14T08:25:41;23.39;42.16
75865;HTU21D;64510;46.704;38.274;2023-05-14T08:28:07;23.73;41.62
75865;HTU21D;64510;46.704;38.274;2023-05-14T08:30:33;23.90;41.30
75865;HTU21D;64510;46.704;38.274;2023-05-14T08:32:59;23.89;41.06
75865;HTU21D;64510;46.704;38.274;2023-05-14T08:35:25;23.99;40.65
75865;HTU21D;64510;46.704;38.274;2023-05-14T08:37:51;23.99;40.24
75865;HTU21D;64510;46.704;38.274;2023-05-14T08:40:17;24.01;39.39
75865;HTU21D;64510;46.704;38.274;2023-05-14T08:42:43;24.04;39.24
75865;HTU21D;64510;46.704;38.274;2023-05-14T08:45:28;24.16;38.32
75865;HTU21D;64510;46.704;38.274;2023-05-14T08:47:57;24.03;37.72
75865;HTU21D;64510;46.704;38.274;2023-05-14T08:50:24;23.84;37.65
75865;HTU21D;64510;46.704;38.274;2023-05-14T08:52:51;23.88;37.56
75865;HTU21D;64510;46.704;38.274;2023-05-14T08:55:17;24.09;37.51
75865;HTU21D;64510;46.704;38.274;2023-05-14T08:57:44;24.21;37.10
75865;HTU21D;64510;46.704;38.274;2023-05-14T09:00:11;24.28;36.92
75865;HTU21D;64510;46.704;38.274;2023-05-14T09:02:39;24.28;36.70
75865;HTU21D;64510;46.704;38.274;2023-05-14T09:05:06;24.36;36.72
75865;HTU21D;64510;46.704;38.274;2023-05-14T09:07:32;24.35;36.79
75865;HTU21D;64510;46.704;38.274;2023-05-14T09:09:58;24.38;36.79
75865;HTU21D;64510;46.704;38.274;2023-05-14T09:12:24;24.40;36.81
75865;HTU21D;64510;46.704;38.274;2023-05-14T09:14:50;24.35;36.50
75865;HTU21D;64510;46.704;38.274;2023-05-14T09:17:17;24.17;35.96
75865;HTU21D;64510;46.704;38.274;2023-05-14T09:19:44;24.06;36.13
75865;HTU21D;64510;46.704;38.274;2023-05-14T09:22:16;24.12;36.08
75865;HTU21D;64510;46.704;38.274;2023-05-14T09:24:42;24.21;35.31
75865;HTU21D;64510;46.704;38.274;2023-05-14T09:27:14;24.23;35.17
75865;HTU21D;64510;46.704;38.274;2023-05-14T09:29:40;24.23;35.25
75865;HTU21D;64510;46.704;38.274;2023-05-14T09:32:06;24.13;34.67
75865;HTU21D;64510;46.704;38.274;2023-05-14T09:34:34;24.19;34.72
75865;HTU21D;64510;46.704;38.274;2023-05-14T09:37:05;24.45;34.70
75865;HTU21D;64510;46.704;38.274;2023-05-14T09:39:32;24.43;34.14
75865;HTU21D;64510;46.704;38.274;2023-05-14T09:41:58;24.27;34.04
75865;HTU21D;64510;46.704;38.274;2023-05-14T09:44:24;24.38;33.79
75865;HTU21D;64510;46.704;38.274;2023-05-14T09:46:51;24.47;33.63
75865;HTU21D;64510;46.704;38.274;2023-05-14T09:49:18;24.59;33.51
75865;HTU21D;64510;46.704;38.274;2023-05-14T09:51:44;24.75;33.12
75865;HTU21D;64510;46.704;38.274;2023-05-14T09:54:10;24.73;32.51
75865;HTU21D;64510;46.704;38.274;2023-05-14T09:56:36;24.74;32.88
75865;HTU21D;64510;46.704;38.274;2023-05-14T09:59:04;24.86;32.94
75865;HTU21D;64510;46.704;38.274;2023-05-14T10:01:31;24.90;32.42
75865;HTU21D;64510;46.704;38.274;2023-05-14T10:04:02;24.76;32.25
75865;HTU21D;64510;46.704;38.274;2023-05-14T10:06:32;24.43;31.96
75865;HTU21D;64510;46.704;38.274;2023-05-14T10:09:03;24.45;31.81
75865;HTU21D;64510;46.704;38.274;2023-05-14T10:11:32;24.80;31.81
75865;HTU21D;64510;46.704;38.274;2023-05-14T10:14:12;24.93;31.32
75865;HTU21D;64510;46.704;38.274;2023-05-14T10:16:46;24.87;31.32
75865;HTU21D;64510;46.704;38.274;2023-05-14T10:19:15;24.82;31.53
75865;HTU21D;64510;46.704;38.274;2023-05-14T10:21:45;24.77;31.45
75865;HTU21D;64510;46.704;38.274;2023-05-14T10:24:13;24.79;31.34
75865;HTU21D;64510;46.704;38.274;2023-05-14T10:26:39;24.75;31.56
75865;HTU21D;64510;46.704;38.274;2023-05-14T10:29:08;24.78;32.02
75865;HTU21D;64510;46.704;38.274;2023-05-14T10:31:51;24.80;32.19
75865;HTU21D;64510;46.704;38.274;2023-05-14T10:34:40;24.55;32.74
75865;HTU21D;64510;46.704;38.274;2023-05-14T10:37:16;24.34;33.52
75865;HTU21D;64510;46.704;38.274;2023-05-14T10:42:10;24.49;34.07
75865;HTU21D;64510;46.704;38.274;2023-05-14T10:44:52;24.42;34.16
75865;HTU21D;64510;46.704;38.274;2023-05-14T10:47:20;24.26;34.92
75865;HTU21D;64510;46.704;38.274;2023-05-14T10:49:47;24.20;35.63
75865;HTU21D;64510;46.704;38.274;2023-05-14T10:52:18;24.16;35.89
75865;HTU21D;64510;46.704;38.274;2023-05-14T10:54:54;23.99;36.32
75865;HTU21D;64510;46.704;38.274;2023-05-14T10:57:23;23.75;36.85
75865;HTU21D;64510;46.704;38.274;2023-05-14T10:59:51;23.38;37.96
75865;HTU21D;64510;46.704;38.274;2023-05-14T11:02:27;23.05;39.76
75865;HTU21D;64510;46.704;38.274;2023-05-14T11:05:15;22.87;40.96
75865;HTU21D;64510;46.704;38.274;2023-05-14T11:07:46;22.81;42.00
75865;HTU21D;64510;46.704;38.274;2023-05-14T11:10:16;22.76;43.02
75865;HTU21D;64510;46.704;38.274;2023-05-14T11:12:48;22.66;44.67
75865;HTU21D;64510;46.704;38.274;2023-05-14T11:15:24;22.42;46.66
75865;HTU21D;64510;46.704;38.274;2023-05-14T11:17:52;22.26;48.20
75865;HTU21D;64510;46.704;38.274;2023-05-14T11:20:19;21.98;49.18
75865;HTU21D;64510;46.704;38.274;2023-05-14T11:22:46;21.89;50.57
75865;HTU21D;64510;46.704;38.274;2023-05-14T11:25:13;21.82;51.15
75865;HTU21D;64510;46.704;38.274;2023-05-14T11:27:40;21.81;51.37
75865;HTU21D;64510;46.704;38.274;2023-05-14T11:30:15;21.89;50.72
75865;HTU21D;64510;46.704;38.274;2023-05-14T11:32:43;21.94;50.30
75865;HTU21D;64510;46.704;38.274;2023-05-14T11:35:09;22.04;49.58
75865;HTU21D;64510;46.704;38.274;2023-05-14T11:37:35;22.08;48.88
75865;HTU21D;64510;46.704;38.274;2023-05-14T11:40:01;22.09;48.54
75865;HTU21D;64510;46.704;38.274;2023-05-14T11:42:27;22.06;48.18
75865;HTU21D;64510;46.704;38.274;2023-05-14T11:44:53;21.88;47.95
75865;HTU21D;64510;46.704;38.274;2023-05-14T11:47:20;21.68;48.24
75865;HTU21D;64510;46.704;38.274;2023-05-14T11:49:47;21.69;48.47
75865;HTU21D;64510;46.704;38.274;2023-05-14T11:52:14;21.69;48.47
75865;HTU21D;64510;46.704;38.274;2023-05-14T11:54:41;21.67;48.09
75865;HTU21D;64510;46.704;38.274;2023-05-14T11:57:09;21.69;47.52
75865;HTU21D;64510;46.704;38.274;2023-05-14T11:59:36;21.70;46.87
75865;HTU21D;64510;46.704;38.274;2023-05-14T12:02:03;21.76;46.15
75865;HTU21D;64510;46.704;38.274;2023-05-14T12:04:32;21.81;45.58
75865;HTU21D;64510;46.704;38.274;2023-05-14T12:06:59;21.87;44.99
75865;HTU21D;64510;46.704;38.274;2023-05-14T12:09:35;21.88;44.19
75865;HTU21D;64510;46.704;38.274;2023-05-14T12:12:10;21.83;43.70
75865;HTU21D;64510;46.704;38.274;2023-05-14T12:14:40;21.81;43.26
75865;HTU21D;64510;46.704;38.274;2023-05-14T12:17:25;21.77;43.73
75865;HTU21D;64510;46.704;38.274;2023-05-14T12:19:51;21.76;43.01
75865;HTU21D;64510;46.704;38.274;2023-05-14T12:22:21;21.76;42.67
75865;HTU21D;64510;46.704;38.274;2023-05-14T12:24:56;21.77;43.06
75865;HTU21D;64510;46.704;38.274;2023-05-14T12:27:24;21.78;42.43
75865;HTU21D;64510;46.704;38.274;2023-05-14T12:30:03;21.81;42.25
75865;HTU21D;64510;46.704;38.274;2023-05-14T12:32:33;21.87;42.03
75865;HTU21D;64510;46.704;38.274;2023-05-14T12:35:00;21.87;41.92
75865;HTU21D;64510;46.704;38.274;2023-05-14T12:37:26;21.87;41.91
75865;HTU21D;64510;46.704;38.274;2023-05-14T12:39:52;21.77;41.74
75865;HTU21D;64510;46.704;38.274;2023-05-14T12:42:18;21.50;42.84
75865;HTU21D;64510;46.704;38.274;2023-05-14T12:44:44;21.21;45.21
75865;HTU21D;64510;46.704;38.274;2023-05-14T12:47:10;21.07;46.60
75865;HTU21D;64510;46.704;38.274;2023-05-14T12:49:36;20.96;47.92
75865;HTU21D;64510;46.704;38.274;2023-05-14T12:52:04;20.89;48.52
75865;HTU21D;64510;46.704;38.274;2023-05-14T12:54:30;20.84;48.92
75865;HTU21D;64510;46.704;38.274;2023-05-14T12:56:57;20.85;49.53
75865;HTU21D;64510;46.704;38.274;2023-05-14T12:59:23;20.85;49.79
75865;HTU21D;64510;46.704;38.274;2023-05-14T13:01:49;20.89;49.56
75865;HTU21D;64510;46.704;38.274;2023-05-14T13:04:15;20.88;49.31
75865;HTU21D;64510;46.704;38.274;2023-05-14T13:06:41;20.81;49.34
75865;HTU21D;64510;46.704;38.274;2023-05-14T13:09:07;20.71;49.70
75865;HTU21D;64510;46.704;38.274;2023-05-14T13:11:33;20.63;50.17
75865;HTU21D;64510;46.704;38.274;2023-05-14T13:14:00;20.64;50.06
75865;HTU21D;64510;46.704;38.274;2023-05-14T13:16:28;20.78;49.86
75865;HTU21D;64510;46.704;38.274;2023-05-14T13:18:54;20.93;49.81
75865;HTU21D;64510;46.704;38.274;2023-05-14T13:21:20;21.00;49.26
75865;HTU21D;64510;46.704;38.274;2023-05-14T13:23:47;21.07;49.12
75865;HTU21D;64510;46.704;38.274;2023-05-14T13:26:13;21.21;48.50
75865;HTU21D;64510;46.704;38.274;2023-05-14T13:28:40;21.35;47.78
75865;HTU21D;64510;46.704;38.274;2023-05-14T13:31:10;21.54;47.01
75865;HTU21D;64510;46.704;38.274;2023-05-14T13:33:41;21.69;46.43
75865;HTU21D;64510;46.704;38.274;2023-05-14T13:36:07;21.67;45.54
75865;HTU21D;64510;46.704;38.274;2023-05-14T13:38:33;21.61;45.55
75865;HTU21D;64510;46.704;38.274;2023-05-14T13:41:00;21.60;45.61
75865;HTU21D;64510;46.704;38.274;2023-05-14T13:43:30;21.63;45.50
75865;HTU21D;64510;46.704;38.274;2023-05-14T13:45:56;21.61;45.42
75865;HTU21D;64510;46.704;38.274;2023-05-14T13:48:23;21.57;45.72
75865;HTU21D;64510;46.704;38.274;2023-05-14T13:50:49;21.47;45.93
75865;HTU21D;64510;46.704;38.274;2023-05-14T13:53:20;21.39;46.09
75865;HTU21D;64510;46.704;38.274;2023-05-14T13:55:47;21.35;46.47
75865;HTU21D;64510;46.704;38.274;2023-05-14T13:58:13;21.22;47.15
75865;HTU21D;64510;46.704;38.274;2023-05-14T14:00:39;21.09;47.70
75865;HTU21D;64510;46.704;38.274;2023-05-14T14:03:06;21.03;48.15
75865;HTU21D;64510;46.704;38.274;2023-05-14T14:05:35;20.99;47.92
75865;HTU21D;64510;46.704;38.274;2023-05-14T14:08:01;20.99;47.75
75865;HTU21D;64510;46.704;38.274;2023-05-14T14:10:27;20.92;47.98
75865;HTU21D;64510;46.704;38.274;2023-05-14T14:12:53;20.81;48.30
75865;HTU21D;64510;46.704;38.274;2023-05-14T14:15:19;20.71;48.65
75865;HTU21D;64510;46.704;38.274;2023-05-14T14:17:46;20.65;49.00
75865;HTU21D;64510;46.704;38.274;2023-05-14T14:20:12;20.63;49.37
75865;HTU21D;64510;46.704;38.274;2023-05-14T14:22:39;20.60;49.47
75865;HTU21D;64510;46.704;38.274;2023-05-14T14:25:05;20.56;49.63
75865;HTU21D;64510;46.704;38.274;2023-05-14T14:27:33;20.50;49.85
75865;HTU21D;64510;46.704;38.274;2023-05-14T14:30:06;20.44;50.11
75865;HTU21D;64510;46.704;38.274;2023-05-14T14:32:32;20.32;50.72
75865;HTU21D;64510;46.704;38.274;2023-05-14T14:34:58;20.24;51.05
75865;HTU21D;64510;46.704;38.274;2023-05-14T14:37:24;20.21;51.34
75865;HTU21D;64510;46.704;38.274;2023-05-14T14:39:49;20.22;51.44
75865;HTU21D;64510;46.704;38.274;2023-05-14T14:42:15;20.20;51.56
75865;HTU21D;64510;46.704;38.274;2023-05-14T14:44:41;20.21;51.23
75865;HTU21D;64510;46.704;38.274;2023-05-14T14:47:07;20.22;50.94
75865;HTU21D;64510;46.704;38.274;2023-05-14T14:49:33;20.25;50.50
75865;HTU21D;64510;46.704;38.274;2023-05-14T14:51:59;20.26;50.37
75865;HTU21D;64510;46.704;38.274;2023-05-14T14:54:25;20.25;50.35
75865;HTU21D;64510;46.704;38.274;2023-05-14T14:56:51;20.20;50.22
75865;HTU21D;64510;46.704;38.274;2023-05-14T14:59:17;20.14;50.21
75865;HTU21D;64510;46.704;38.274;2023-05-14T15:01:43;20.06;50.14
75865;HTU21D;64510;46.704;38.274;2023-05-14T15:04:09;20.00;50.30
75865;HTU21D;64510;46.704;38.274;2023-05-14T15:06:35;19.92;50.45
75865;HTU21D;64510;46.704;38.274;2023-05-14T15:09:01;19.88;50.57